createdAt,value
2024-01-20T00:00:15.858Z,11.30
2024-01-20T00:02:43.643Z,8.77
2024-01-20T00:05:13.165Z,8.68
2024-01-20T00:07:41.054Z,7.25
2024-01-20T00:10:12.293Z,7.78
2024-01-20T00:12:41.676Z,6.60
2024-01-20T00:15:10.115Z,7.90
2024-01-20T00:17:38.941Z,9.25
2024-01-20T00:20:07.248Z,9.48
2024-01-20T00:22:34.263Z,9.48
2024-01-20T00:25:03.433Z,9.98
2024-01-20T00:27:31.741Z,10.90
2024-01-20T00:29:59.589Z,9.90
2024-01-20T00:32:27.778Z,8.73
2024-01-20T00:35:04.789Z,8.27
2024-01-20T00:37:39.170Z,7.82
2024-01-20T00:40:07.201Z,8.68
2024-01-20T00:42:34.274Z,7.95
2024-01-20T00:45:01.184Z,7.82
2024-01-20T00:47:28.185Z,8.18
2024-01-20T00:49:55.104Z,8.38
2024-01-20T00:52:21.959Z,8.85
2024-01-20T00:54:48.746Z,9.32
2024-01-20T00:57:16.600Z,7.38
2024-01-20T00:59:43.642Z,7.55
2024-01-20T01:02:10.496Z,6.93
2024-01-20T01:04:37.330Z,6.30
2024-01-20T01:07:04.366Z,5.72
2024-01-20T01:09:31.120Z,6.63
2024-01-20T01:11:58.462Z,7.50
2024-01-20T01:14:25.384Z,7.18
2024-01-20T01:16:52.276Z,7.45
2024-01-20T01:19:19.124Z,6.88
2024-01-20T01:21:45.866Z,6.88
2024-01-20T01:24:12.796Z,6.38
2024-01-20T01:26:39.647Z,6.63
2024-01-20T01:29:06.996Z,6.05
2024-01-20T01:31:34.278Z,4.47
2024-01-20T01:34:01.068Z,4.25
2024-01-20T01:36:27.830Z,4.78
2024-01-20T01:38:54.641Z,5.22
2024-01-20T01:41:21.634Z,4.80
2024-01-20T01:43:48.473Z,3.60
2024-01-20T01:46:15.592Z,4.85
2024-01-20T01:48:42.581Z,4.13
2024-01-20T01:51:09.605Z,3.83
2024-01-20T01:53:36.961Z,3.75
2024-01-20T01:56:05.234Z,4.63
2024-01-20T01:58:32.160Z,4.10
2024-01-20T02:00:59.241Z,3.92
2024-01-20T02:03:26.374Z,3.92
2024-01-20T02:05:53.754Z,4.20
2024-01-20T02:08:25.628Z,3.78
2024-01-20T02:10:52.821Z,3.88
2024-01-20T02:13:21.534Z,3.20
2024-01-20T02:15:49.075Z,3.45
2024-01-20T02:18:15.968Z,3.40
2024-01-20T02:20:42.779Z,3.58
2024-01-20T02:23:09.675Z,3.63
2024-01-20T02:25:36.509Z,3.75
2024-01-20T02:28:03.469Z,3.30
2024-01-20T02:30:30.485Z,3.33
2024-01-20T02:32:57.464Z,4.50
2024-01-20T02:35:24.318Z,3.50
2024-01-20T02:37:51.362Z,4.05
2024-01-20T02:40:18.542Z,3.40
2024-01-20T02:42:45.297Z,3.60
2024-01-20T02:45:12.160Z,3.25
2024-01-20T02:47:39.069Z,3.10
2024-01-20T02:50:06.763Z,3.92
2024-01-20T02:52:34.532Z,3.97
2024-01-20T02:55:01.350Z,3.58
2024-01-20T02:57:28.175Z,3.83
2024-01-20T02:59:55.062Z,3.65
2024-01-20T03:02:21.899Z,3.28
2024-01-20T03:04:48.680Z,3.63
2024-01-20T03:07:15.605Z,3.30
2024-01-20T03:09:42.488Z,3.67
2024-01-20T03:12:09.445Z,3.88
2024-01-20T03:14:36.706Z,2.97
2024-01-20T03:17:03.838Z,3.53
2024-01-20T03:19:30.703Z,3.05
2024-01-20T03:21:57.512Z,3.05
2024-01-20T03:24:24.657Z,3.17
2024-01-20T03:26:52.088Z,3.08
2024-01-20T03:29:19.007Z,2.95
2024-01-20T03:31:45.913Z,3.40
2024-01-20T03:34:12.912Z,2.63
2024-01-20T03:36:39.900Z,2.85
2024-01-20T03:39:06.773Z,2.85
2024-01-20T03:41:33.550Z,2.92
2024-01-20T03:44:00.310Z,2.80
2024-01-20T03:46:27.128Z,3.05
2024-01-20T03:48:54.256Z,2.55
2024-01-20T03:51:23.920Z,3.08
2024-01-20T03:53:50.796Z,2.72
2024-01-20T03:56:17.564Z,3.15
2024-01-20T03:58:44.376Z,3.15
2024-01-20T04:01:11.470Z,3.63
2024-01-20T04:03:38.371Z,3.85
2024-01-20T04:06:06.070Z,3.70
2024-01-20T04:08:32.848Z,2.83
2024-01-20T04:10:59.636Z,3.05
2024-01-20T04:13:26.417Z,3.40
2024-01-20T04:15:54.849Z,3.28
2024-01-20T04:18:21.836Z,3.00
2024-01-20T04:20:48.844Z,3.05
2024-01-20T04:23:15.682Z,4.68
2024-01-20T04:25:42.436Z,3.38
2024-01-20T04:28:09.274Z,3.13
2024-01-20T04:30:36.155Z,3.25
2024-01-20T04:33:03.085Z,3.15
2024-01-20T04:35:29.896Z,2.80
2024-01-20T04:37:56.642Z,2.80
2024-01-20T04:40:23.398Z,3.45
2024-01-20T04:42:50.108Z,3.10
2024-01-20T04:45:17.034Z,3.38
2024-01-20T04:47:44.505Z,3.05
2024-01-20T04:50:13.483Z,3.53
2024-01-20T04:52:40.255Z,3.60
2024-01-20T04:55:07.251Z,3.33
2024-01-20T04:57:34.110Z,3.30
2024-01-20T05:00:01.304Z,3.40
2024-01-20T05:02:28.112Z,3.17
2024-01-20T05:04:54.879Z,3.85
2024-01-20T05:07:21.710Z,3.80
2024-01-20T05:09:48.516Z,4.00
2024-01-20T05:12:15.324Z,3.55
2024-01-20T05:14:42.077Z,4.07
2024-01-20T05:17:08.904Z,3.42
2024-01-20T05:19:40.019Z,3.75
2024-01-20T05:22:07.066Z,3.70
2024-01-20T05:24:33.981Z,3.35
2024-01-20T05:27:00.899Z,3.47
2024-01-20T05:29:27.681Z,3.20
2024-01-20T05:31:54.540Z,3.20
2024-01-20T05:34:21.446Z,2.95
2024-01-20T05:36:48.559Z,3.83
2024-01-20T05:39:15.421Z,3.50
2024-01-20T05:41:42.198Z,3.58
2024-01-20T05:44:09.223Z,3.42
2024-01-20T05:46:36.016Z,3.92
2024-01-20T05:49:03.015Z,3.88
2024-01-20T05:51:29.991Z,3.88
2024-01-20T05:53:56.745Z,3.30
2024-01-20T05:56:24.744Z,3.95
2024-01-20T05:58:51.537Z,3.20
2024-01-20T06:01:18.986Z,3.47
2024-01-20T06:03:45.970Z,2.85
2024-01-20T06:06:13.480Z,3.45
2024-01-20T06:08:40.357Z,3.53
2024-01-20T06:11:07.161Z,4.07
2024-01-20T06:13:33.904Z,4.65
2024-01-20T06:16:00.733Z,3.53
2024-01-20T06:18:31.694Z,3.72
2024-01-20T06:21:00.706Z,2.45
2024-01-20T06:23:28.030Z,3.38
2024-01-20T06:25:56.609Z,2.95
2024-01-20T06:28:24.607Z,3.30
2024-01-20T06:30:51.388Z,4.03
2024-01-20T06:33:19.690Z,3.88
2024-01-20T06:35:46.524Z,3.50
2024-01-20T06:38:13.305Z,3.22
2024-01-20T06:40:40.038Z,2.63
2024-01-20T06:43:07.648Z,3.33
2024-01-20T06:45:36.122Z,3.10
2024-01-20T06:48:03.321Z,2.80
2024-01-20T06:50:30.133Z,3.10
2024-01-20T06:52:56.878Z,4.65
2024-01-20T06:55:23.672Z,4.55
2024-01-20T06:57:50.444Z,3.75
2024-01-20T07:00:17.337Z,2.55
2024-01-20T07:02:44.344Z,3.30
2024-01-20T07:05:11.421Z,3.45
2024-01-20T07:07:39.402Z,2.92
2024-01-20T07:10:09.928Z,3.30
2024-01-20T07:12:37.710Z,2.90
2024-01-20T07:15:06.693Z,2.65
2024-01-20T07:17:33.944Z,2.88
2024-01-20T07:20:00.816Z,2.50
2024-01-20T07:22:27.711Z,3.08
2024-01-20T07:24:55.522Z,3.00
2024-01-20T07:27:22.657Z,3.25
2024-01-20T07:29:49.696Z,2.65
2024-01-20T07:32:16.459Z,3.40
2024-01-20T07:34:43.504Z,3.53
2024-01-20T07:37:10.424Z,3.28
2024-01-20T07:39:37.246Z,4.45
2024-01-20T07:42:04.582Z,16.55
2024-01-20T07:44:32.955Z,4.53
2024-01-20T07:47:01.136Z,5.45
2024-01-20T07:49:28.220Z,4.18
2024-01-20T07:51:55.176Z,3.40
2024-01-20T07:54:21.955Z,2.97
2024-01-20T07:56:48.859Z,4.88
2024-01-20T07:59:17.592Z,4.00
2024-01-20T08:01:44.436Z,8.10
2024-01-20T08:04:11.349Z,8.13
2024-01-20T08:06:38.418Z,10.90
2024-01-20T08:09:05.534Z,8.38
2024-01-20T08:11:32.331Z,9.07
2024-01-20T08:14:00.005Z,7.00
2024-01-20T08:16:29.426Z,3.58
2024-01-20T08:18:57.194Z,7.80
2024-01-20T08:21:24.858Z,4.70
2024-01-20T08:23:52.272Z,7.55
2024-01-20T08:26:19.093Z,4.13
2024-01-20T08:28:45.908Z,4.53
2024-01-20T08:31:13.023Z,2.92
2024-01-20T08:33:40.229Z,2.90
2024-01-20T08:36:07.525Z,4.28
2024-01-20T08:38:34.322Z,2.78
2024-01-20T08:41:07.373Z,3.10
2024-01-20T08:43:44.878Z,3.03
2024-01-20T08:46:13.522Z,3.53
2024-01-20T08:48:41.199Z,2.42
2024-01-20T08:51:08.129Z,3.83
2024-01-20T08:53:37.525Z,3.35
2024-01-20T08:56:04.994Z,3.25
2024-01-20T08:58:31.770Z,2.45
2024-01-20T09:00:58.908Z,4.75
2024-01-20T09:03:26.376Z,2.70
2024-01-20T09:05:53.559Z,2.97
2024-01-20T09:08:20.365Z,2.25
2024-01-20T09:10:47.152Z,2.30
2024-01-20T09:13:14.061Z,2.30
2024-01-20T09:15:41.183Z,2.20
2024-01-20T09:18:08.970Z,2.40
2024-01-20T09:20:36.302Z,2.42
2024-01-20T09:23:03.411Z,2.45
2024-01-20T09:25:30.911Z,2.63
2024-01-20T09:27:57.634Z,2.72
2024-01-20T09:30:24.488Z,2.50
2024-01-20T09:32:51.337Z,1.80
2024-01-20T09:35:18.278Z,1.95
2024-01-20T09:37:45.059Z,1.85
2024-01-20T09:40:12.432Z,2.10
2024-01-20T09:42:40.614Z,2.00
2024-01-20T09:45:08.186Z,1.77
2024-01-20T09:47:36.380Z,2.17
2024-01-20T09:50:05.610Z,1.95
2024-01-20T09:52:36.282Z,2.30
2024-01-20T09:55:06.424Z,2.00
2024-01-20T09:57:33.996Z,1.90
2024-01-20T10:00:03.438Z,1.80
2024-01-20T10:02:30.625Z,2.20
2024-01-20T10:05:01.414Z,2.53
2024-01-20T10:07:31.694Z,2.42
2024-01-20T10:09:58.644Z,1.80
2024-01-20T10:12:25.581Z,1.50
2024-01-20T10:14:53.008Z,2.42
2024-01-20T10:17:20.193Z,2.15
2024-01-20T10:19:47.246Z,1.90
2024-01-20T10:22:14.346Z,1.77
2024-01-20T10:24:48.348Z,2.10
2024-01-20T10:27:27.082Z,1.75
2024-01-20T10:29:53.849Z,2.00
2024-01-20T10:32:20.715Z,2.00
2024-01-20T10:34:47.766Z,2.25
2024-01-20T10:37:15.439Z,1.80
2024-01-20T10:39:46.357Z,1.90
2024-01-20T10:42:13.977Z,2.63
2024-01-20T10:45:03.315Z,2.40
2024-01-20T10:47:38.283Z,2.20
2024-01-20T10:50:06.706Z,1.90
2024-01-20T10:52:37.356Z,2.63
2024-01-20T10:55:06.281Z,2.83
2024-01-20T10:57:33.925Z,2.10
2024-01-20T11:00:02.699Z,3.60
2024-01-20T11:02:29.784Z,4.05
2024-01-20T11:04:56.526Z,2.30
2024-01-20T11:07:29.891Z,2.17
2024-01-20T11:10:00.695Z,1.70
2024-01-20T11:12:28.978Z,2.40
2024-01-20T11:14:56.924Z,2.75
2024-01-20T11:17:24.593Z,2.90
2024-01-20T11:19:52.500Z,3.28
2024-01-20T11:22:36.738Z,3.90
2024-01-20T11:25:08.599Z,3.65
2024-01-20T11:27:49.518Z,2.40
2024-01-20T11:30:27.624Z,2.90
2024-01-20T11:32:56.205Z,2.22
2024-01-20T11:35:27.603Z,2.95
2024-01-20T11:38:00.332Z,2.10
2024-01-20T11:40:27.639Z,2.83
2024-01-20T11:43:05.661Z,2.35
2024-01-20T11:45:32.571Z,2.05
2024-01-20T11:48:00.422Z,2.42
2024-01-20T11:50:27.721Z,2.00
2024-01-20T11:52:54.521Z,2.40
2024-01-20T11:55:21.230Z,3.47
2024-01-20T11:57:48.806Z,2.55
2024-01-20T12:00:17.122Z,3.00
2024-01-20T12:02:51.370Z,2.50
2024-01-20T12:05:19.110Z,3.03
2024-01-20T12:07:47.738Z,2.28
2024-01-20T12:10:17.830Z,2.40
2024-01-20T12:12:45.288Z,2.05
2024-01-20T12:15:16.025Z,2.47
2024-01-20T12:17:43.085Z,2.13
2024-01-20T12:20:10.961Z,1.80
2024-01-20T12:22:38.223Z,2.00
2024-01-20T12:25:06.232Z,2.28
2024-01-20T12:27:33.115Z,2.08
2024-01-20T12:30:02.510Z,2.10
2024-01-20T12:32:31.452Z,1.75
2024-01-20T12:34:58.919Z,1.83
2024-01-20T12:37:59.269Z,2.15
2024-01-20T12:40:27.546Z,2.10
2024-01-20T12:45:36.077Z,1.83
2024-01-20T12:48:03.075Z,1.73
2024-01-20T12:53:10.684Z,2.55
2024-01-20T12:55:37.534Z,2.42
2024-01-20T12:58:06.816Z,5.15
2024-01-20T13:00:33.677Z,3.00
2024-01-20T13:03:04.996Z,2.53
2024-01-20T13:05:35.086Z,2.58
2024-01-20T13:08:01.946Z,3.08
2024-01-20T13:10:28.698Z,4.43
2024-01-20T13:12:58.243Z,3.22
2024-01-20T13:15:27.444Z,1.80
2024-01-20T13:17:54.447Z,1.70
2024-01-20T13:20:21.630Z,1.67
2024-01-20T13:22:48.452Z,1.55
2024-01-20T13:25:15.294Z,1.88
2024-01-20T13:27:42.258Z,2.13
2024-01-20T13:30:10.034Z,2.13
2024-01-20T13:32:36.916Z,2.38
2024-01-20T13:35:05.530Z,2.17
2024-01-20T13:37:32.472Z,2.05
2024-01-20T13:39:59.319Z,2.15
2024-01-20T13:42:26.275Z,2.10
2024-01-20T13:44:53.100Z,2.08
2024-01-20T13:47:20.230Z,2.10
2024-01-20T13:49:47.160Z,2.00
2024-01-20T13:52:14.003Z,2.22
2024-01-20T13:54:40.847Z,2.20
2024-01-20T13:57:07.698Z,2.10
2024-01-20T13:59:35.957Z,2.53
2024-01-20T14:02:03.171Z,2.88
2024-01-20T14:04:30.012Z,3.30
2024-01-20T14:06:59.384Z,3.92
2024-01-20T14:09:27.675Z,4.03
2024-01-20T14:11:58.606Z,2.60
2024-01-20T14:14:25.801Z,2.77
2024-01-20T14:16:59.273Z,2.92
2024-01-20T14:19:28.109Z,2.08
2024-01-20T14:21:55.217Z,2.50
2024-01-20T14:24:22.554Z,2.85
2024-01-20T14:26:49.942Z,2.80
2024-01-20T14:29:16.705Z,2.15
2024-01-20T14:31:47.140Z,2.30
2024-01-20T14:34:14.241Z,2.25
2024-01-20T14:36:46.825Z,2.60
2024-01-20T14:39:14.624Z,2.50
2024-01-20T14:41:41.478Z,2.22
2024-01-20T14:44:08.303Z,2.90
2024-01-20T14:46:35.107Z,2.13
2024-01-20T14:49:05.145Z,20.90
2024-01-20T14:51:34.552Z,11.48
2024-01-20T14:54:06.695Z,13.52
2024-01-20T15:04:04.427Z,7.13
2024-01-20T15:13:03.438Z,7.05
2024-01-20T15:15:54.175Z,3.67
2024-01-20T15:18:30.419Z,6.30
2024-01-20T15:21:00.468Z,4.25
2024-01-20T15:23:40.890Z,2.35
2024-01-20T15:26:20.888Z,3.20
2024-01-20T15:28:49.926Z,24.58
2024-01-20T15:31:25.073Z,41.78
2024-01-20T15:33:54.546Z,51.67
2024-01-20T15:39:40.648Z,26.75
2024-01-20T15:42:08.667Z,8.45
2024-01-20T15:44:35.430Z,4.63
2024-01-20T15:47:02.181Z,3.40
2024-01-20T15:49:28.962Z,4.43
2024-01-20T15:51:55.784Z,4.95
2024-01-20T15:54:22.550Z,5.35
2024-01-20T15:56:50.346Z,5.15
2024-01-20T15:59:20.939Z,3.20
2024-01-20T16:01:47.752Z,3.03
2024-01-20T16:04:14.668Z,3.85
2024-01-20T16:06:41.902Z,3.20
2024-01-20T16:09:55.011Z,3.47
2024-01-20T16:12:32.046Z,3.03
2024-01-20T16:14:59.709Z,3.63
2024-01-20T16:17:29.133Z,6.15
2024-01-20T16:23:47.232Z,4.68
2024-01-20T16:26:16.272Z,3.40
2024-01-20T16:28:43.008Z,3.58
2024-01-20T16:31:09.742Z,3.78
2024-01-20T16:33:37.582Z,3.25
2024-01-20T16:36:04.831Z,3.33
2024-01-20T16:38:33.933Z,6.40
2024-01-20T16:43:43.081Z,3.10
2024-01-20T16:46:10.810Z,2.95
2024-01-20T16:48:37.867Z,2.72
2024-01-20T16:51:14.755Z,3.05
2024-01-20T16:53:45.029Z,3.47
2024-01-20T16:56:11.834Z,3.55
2024-01-20T16:58:38.628Z,3.10
2024-01-20T17:01:05.960Z,7.40
2024-01-20T17:03:32.849Z,8.43
2024-01-20T17:05:59.753Z,5.85
2024-01-20T17:08:26.505Z,3.38
2024-01-20T17:10:53.594Z,3.55
2024-01-20T17:13:20.732Z,3.30
2024-01-20T17:15:47.563Z,6.07
2024-01-20T17:18:14.732Z,12.23
2024-01-20T17:20:41.639Z,17.02
2024-01-20T17:23:08.512Z,5.03
2024-01-20T17:25:35.438Z,5.80
2024-01-20T17:28:02.191Z,3.42
2024-01-20T17:30:28.967Z,3.45
2024-01-20T17:32:55.803Z,3.95
2024-01-20T17:35:22.571Z,3.92
2024-01-20T17:37:54.403Z,3.80
2024-01-20T17:40:21.565Z,4.78
2024-01-20T17:42:48.453Z,7.55
2024-01-20T17:45:16.477Z,5.68
2024-01-20T17:47:46.795Z,4.68
2024-01-20T17:50:14.588Z,3.90
2024-01-20T17:52:41.419Z,3.45
2024-01-20T17:58:23.844Z,3.97
2024-01-20T18:00:51.223Z,3.63
2024-01-20T18:03:18.106Z,11.90
2024-01-20T18:05:44.964Z,7.00
2024-01-20T18:08:12.044Z,4.00
2024-01-20T18:10:38.773Z,8.27
2024-01-20T18:13:06.533Z,15.02
2024-01-20T18:15:33.335Z,8.95
2024-01-20T18:18:00.209Z,17.35
2024-01-20T18:20:26.944Z,6.53
2024-01-20T18:22:54.523Z,14.43
2024-01-20T18:25:21.748Z,10.50
2024-01-20T18:27:48.687Z,11.13
2024-01-20T18:30:15.609Z,11.75
2024-01-20T18:32:42.408Z,7.15
2024-01-20T18:35:11.745Z,6.93
2024-01-20T18:37:41.970Z,5.93
2024-01-20T18:40:10.258Z,5.40
2024-01-20T18:42:37.475Z,6.70
2024-01-20T18:45:06.128Z,9.00
2024-01-20T18:47:32.950Z,6.75
2024-01-20T18:49:59.828Z,5.22
2024-01-20T18:52:26.523Z,5.47
2024-01-20T18:54:55.120Z,5.13
2024-01-20T18:57:22.120Z,5.88
2024-01-20T18:59:48.904Z,5.70
2024-01-20T19:02:15.916Z,5.57
2024-01-20T19:04:43.634Z,7.80
2024-01-20T19:07:10.561Z,5.30
2024-01-20T19:09:41.274Z,5.25
2024-01-20T19:12:08.486Z,7.63
2024-01-20T19:14:35.277Z,5.60
2024-01-20T19:17:02.065Z,6.28
2024-01-20T19:19:30.231Z,8.02
2024-01-20T19:21:57.009Z,6.68
2024-01-20T19:24:23.790Z,6.32
2024-01-20T19:26:50.894Z,8.95
2024-01-20T19:29:18.065Z,8.77
2024-01-20T19:31:44.942Z,8.15
2024-01-20T19:34:11.859Z,10.98
2024-01-20T19:36:38.788Z,9.75
2024-01-20T19:39:07.099Z,10.52
2024-01-20T19:41:34.153Z,9.25
2024-01-20T19:44:00.928Z,9.70
2024-01-20T19:46:27.698Z,7.50
2024-01-20T19:48:54.571Z,10.43
2024-01-20T19:51:21.727Z,10.07
2024-01-20T19:53:48.676Z,15.00
2024-01-20T19:56:15.447Z,18.63
2024-01-20T19:58:42.644Z,16.98
2024-01-20T20:01:10.042Z,12.68
2024-01-20T20:03:36.949Z,10.23
2024-01-20T20:06:04.090Z,9.25
2024-01-20T20:08:31.113Z,8.63
2024-01-20T20:10:57.869Z,7.57
2024-01-20T20:13:27.573Z,9.38
2024-01-20T20:15:55.616Z,9.10
2024-01-20T20:18:22.608Z,16.42
2024-01-20T20:20:49.441Z,17.65
2024-01-20T20:23:16.237Z,10.55
2024-01-20T20:25:43.082Z,9.90
2024-01-20T20:28:09.819Z,9.75
2024-01-20T20:30:37.041Z,10.32
2024-01-20T20:33:04.354Z,10.82
2024-01-20T20:35:32.107Z,9.10
2024-01-20T20:37:59.468Z,7.50
2024-01-20T20:40:26.332Z,8.55
2024-01-20T20:42:53.105Z,8.48
2024-01-20T20:45:20.336Z,8.30
2024-01-20T20:47:47.217Z,8.20
2024-01-20T20:50:17.992Z,8.23
2024-01-20T20:52:46.640Z,8.10
2024-01-20T20:55:13.802Z,7.93
2024-01-20T20:57:41.542Z,8.50
2024-01-20T21:00:15.717Z,8.68
2024-01-20T21:02:46.015Z,8.23
2024-01-20T21:05:19.491Z,9.30
2024-01-20T21:07:47.163Z,8.75
2024-01-20T21:10:18.763Z,8.15
2024-01-20T21:12:46.591Z,12.15
2024-01-20T21:15:14.375Z,15.32
2024-01-20T21:17:41.791Z,9.30
2024-01-20T21:20:09.898Z,8.77
2024-01-20T21:22:37.338Z,8.45
2024-01-20T21:25:04.585Z,8.60
2024-01-20T21:27:31.659Z,9.18
2024-01-20T21:29:58.689Z,11.60
2024-01-20T21:32:27.590Z,8.73
2024-01-20T21:34:54.473Z,9.77
2024-01-20T21:37:21.558Z,8.93
2024-01-20T21:39:48.545Z,8.43
2024-01-20T21:42:19.949Z,10.57
2024-01-20T21:44:46.814Z,8.07
2024-01-20T21:47:14.151Z,11.02
2024-01-20T21:49:41.049Z,13.23
2024-01-20T21:52:07.870Z,10.32
2024-01-20T21:54:34.704Z,18.92
2024-01-20T21:57:01.507Z,19.88
2024-01-20T21:59:28.617Z,12.13
2024-01-20T22:01:55.549Z,5.85
2024-01-20T22:04:22.597Z,7.32
2024-01-20T22:06:51.144Z,7.68
2024-01-20T22:09:18.339Z,8.02
2024-01-20T22:11:45.190Z,7.68
2024-01-20T22:14:12.189Z,6.78
2024-01-20T22:16:38.972Z,5.90
2024-01-20T22:19:06.562Z,6.55
2024-01-20T22:21:33.450Z,6.25
2024-01-20T22:24:00.376Z,6.80
2024-01-20T22:26:27.321Z,9.15
2024-01-20T22:28:55.769Z,5.63
2024-01-20T22:31:23.838Z,16.90
2024-01-20T22:33:50.895Z,18.10
2024-01-20T22:36:18.067Z,7.40
2024-01-20T22:38:46.608Z,6.70
2024-01-20T22:41:17.432Z,6.03
2024-01-20T22:43:47.168Z,5.25
2024-01-20T22:46:21.051Z,5.10
2024-01-20T22:48:47.930Z,5.30
2024-01-20T22:51:22.566Z,4.85
2024-01-20T22:53:49.688Z,5.85
2024-01-20T22:56:17.699Z,5.18
2024-01-20T22:58:48.150Z,4.43
2024-01-20T23:01:17.234Z,5.93
2024-01-20T23:03:44.745Z,5.78
2024-01-20T23:06:12.293Z,5.65
2024-01-20T23:08:40.271Z,6.53
2024-01-20T23:11:07.221Z,4.13
2024-01-20T23:13:33.987Z,5.38
2024-01-20T23:16:00.738Z,5.53
2024-01-20T23:18:27.576Z,4.25
2024-01-20T23:20:54.467Z,4.05
2024-01-20T23:23:21.297Z,3.58
2024-01-20T23:25:48.052Z,4.20
2024-01-20T23:28:14.831Z,4.97
2024-01-20T23:30:43.016Z,5.25
2024-01-20T23:33:10.332Z,3.70
2024-01-20T23:35:38.292Z,3.20
2024-01-20T23:38:06.060Z,3.38
2024-01-20T23:40:34.850Z,3.58
2024-01-20T23:43:01.632Z,3.30
2024-01-20T23:45:29.561Z,3.83
2024-01-20T23:47:56.748Z,3.35
2024-01-20T23:50:23.689Z,3.22
2024-01-20T23:52:50.486Z,6.75
2024-01-20T23:55:17.302Z,25.27
2024-01-20T23:57:45.170Z,12.90
